Terminal Aerodrome Forecast
Issued by NWS

Home | Current Version | Previous Version | Text Only | Print | Product List | Glossary On
Versions: 1 2 3 4 5 6 7 8 9 10 11 12 13 14 15 16 17 18 19 20
000
FTUS43 KMPX 291137
TAFRWF
TAF
KRWF 291137Z 2912/3012 32022G32KT P6SM OVC013
     FM291500 32020G30KT P6SM OVC020
     FM292100 32017G25KT P6SM SCT025
     FM300200 33009KT P6SM SKC
     FM300800 31003KT P6SM SCT100 BKN250=

USA.gov is the U.S. government's official web portal to all federal, state and local government web resources and services.